Anton Chico, New Mexico
Current Conditions -  °F | °C
As of 2:53 PM on Tuesday 21 Oct 2014 (Local Time) from KLVS Reporting Station
Broken Clouds Broken Clouds  
Wind Chill: 59°   Ceiling: 6500
Heat Index: 59°   Visibility: 10mi
Dew Point: 43°   Wind: 12mph
Humidity: 55%   Direction: 180°S
Pressure: 30.14"   Gusts: 20mph
Location:  35.2°N, 105.14°W
Report Text: KLVS 212053Z AUTO 18010G17KT 10SM FEW036 SCT043 BKN065 15/06 A3014 RMK AO2 SLP138 T01500061 56022
Loading
Personal Weather Stations






























Interactive Weather Map
Tropical Storm Tracking
New forecast layout! Learn more

10-Day Weather Forecast

Advertisements
Track Severe Weather on mobile